createdAt,value
2018-09-17T00:03:05.303Z,4.50
2018-09-17T00:05:34.026Z,5.30
2018-09-17T00:08:02.743Z,4.40
2018-09-17T04:02:58.480Z,9.00
2018-09-17T04:05:27.193Z,8.93
2018-09-17T04:07:55.880Z,7.47
2018-09-17T05:02:58.977Z,11.03
2018-09-17T05:05:27.676Z,9.07
2018-09-17T05:07:56.386Z,7.60
2018-09-17T06:02:44.564Z,9.40
2018-09-17T06:05:13.286Z,8.40
2018-09-17T06:07:41.976Z,8.00
2018-09-17T08:02:40.960Z,3.10
2018-09-17T08:05:09.684Z,3.33
2018-09-17T08:07:38.400Z,2.90
2018-09-17T08:10:08.109Z,2.67
2018-09-17T09:02:50.562Z,2.40
2018-09-17T09:05:24.507Z,2.73
2018-09-17T09:07:55.289Z,2.33
2018-09-17T10:02:48.679Z,2.97
2018-09-17T10:05:17.543Z,2.80
2018-09-17T10:07:46.298Z,2.70
2018-09-17T11:02:37.225Z,2.63
2018-09-17T11:05:05.964Z,2.70
2018-09-17T11:07:34.659Z,2.93
2018-09-17T11:10:03.553Z,2.47
2018-09-17T12:02:38.185Z,2.30
2018-09-17T12:05:08.833Z,2.20
2018-09-17T12:07:43.230Z,2.83
2018-09-17T13:02:37.576Z,2.50
2018-09-17T13:05:20.888Z,2.60
2018-09-17T13:07:49.716Z,2.50
2018-09-17T14:02:42.766Z,2.93
2018-09-17T14:05:11.510Z,3.00
2018-09-17T14:07:40.504Z,3.50
2018-09-17T14:10:10.269Z,3.70
2018-09-17T15:02:41.597Z,3.30
2018-09-17T15:05:10.337Z,3.60
2018-09-17T15:07:39.147Z,4.23
2018-09-17T16:02:41.595Z,7.73
2018-09-17T16:05:11.596Z,15.37
2018-09-17T16:07:40.615Z,4.33
2018-09-17T16:10:11.178Z,7.25
2018-09-17T17:02:41.504Z,4.23
2018-09-17T17:05:10.219Z,4.40
2018-09-17T17:07:38.937Z,4.10
2018-09-17T17:10:07.951Z,4.10
2018-09-17T18:02:46.440Z,4.50
2018-09-17T18:05:15.222Z,5.40
2018-09-17T18:07:43.953Z,4.80
2018-09-17T19:02:36.909Z,6.20
2018-09-17T19:05:16.469Z,5.90
2018-09-17T19:07:45.361Z,6.93
2018-09-17T19:25:43.198Z,5.20
2018-09-17T19:28:17.187Z,6.43
2018-09-17T19:30:46.718Z,6.03
2018-09-17T19:33:15.447Z,5.87
2018-09-17T19:35:44.268Z,6.13
2018-09-17T19:38:18.708Z,5.77
2018-09-17T19:40:47.480Z,5.47
2018-09-17T19:43:16.315Z,5.97
2018-09-17T19:45:50.639Z,6.43
2018-09-17T19:48:19.589Z,6.60
2018-09-17T19:50:53.660Z,5.63
2018-09-17T19:53:22.373Z,5.53
2018-09-17T19:55:51.116Z,5.80
2018-09-17T19:58:25.054Z,6.47
2018-09-17T20:01:00.124Z,6.60
2018-09-17T20:03:29.188Z,5.70
2018-09-17T20:06:28.497Z,6.20
2018-09-17T20:08:57.388Z,5.80
2018-09-17T21:02:37.739Z,8.17
2018-09-17T21:05:06.512Z,7.80
2018-09-17T21:07:35.215Z,8.30
2018-09-17T21:10:04.168Z,8.63
2018-09-17T22:02:40.562Z,8.73
2018-09-17T22:05:09.357Z,8.50
2018-09-17T22:07:38.115Z,8.53
2018-09-17T22:10:08.040Z,9.10
2018-09-17T23:02:37.363Z,8.47
2018-09-17T23:05:06.624Z,8.83
2018-09-17T23:07:35.320Z,7.73
2018-09-17T23:10:04.503Z,8.47
